sensor_id;sensor_type;location;lat;lon;timestamp;pressure;altitude;pressure_sealevel;temperature;humidity
25869;BME280;13688;53.154;18.136;2023-02-15T00:03:10;102740.66;;;-1.69;100.00
25869;BME280;13688;53.154;18.136;2023-02-15T00:08:32;102745.10;;;-1.61;100.00
25869;BME280;13688;53.154;18.136;2023-02-15T00:13:55;102741.63;;;-1.51;100.00
25869;BME280;13688;53.154;18.136;2023-02-15T00:19:19;102737.27;;;-1.39;100.00
25869;BME280;13688;53.154;18.136;2023-02-15T00:24:41;102740.83;;;-1.28;100.00
25869;BME280;13688;53.154;18.136;2023-02-15T00:30:04;102736.46;;;-1.25;100.00
25869;BME280;13688;53.154;18.136;2023-02-15T00:35:26;102732.94;;;-1.21;100.00
25869;BME280;13688;53.154;18.136;2023-02-15T00:40:56;102737.38;;;-1.13;100.00
25869;BME280;13688;53.154;18.136;2023-02-15T00:46:16;102725.94;;;-1.11;100.00
25869;BME280;13688;53.154;18.136;2023-02-15T00:51:39;102720.66;;;-1.08;100.00
25869;BME280;13688;53.154;18.136;2023-02-15T00:57:04;102732.09;;;-1.07;100.00
25869;BME280;13688;53.154;18.136;2023-02-15T01:02:27;102725.08;;;-1.04;100.00
25869;BME280;13688;53.154;18.136;2023-02-15T01:07:49;102716.28;;;-1.04;100.00
25869;BME280;13688;53.154;18.136;2023-02-15T01:13:13;102716.28;;;-1.06;100.00
25869;BME280;13688;53.154;18.136;2023-02-15T01:18:36;102715.37;;;-1.06;100.00
25869;BME280;13688;53.154;18.136;2023-02-15T01:23:59;102718.02;;;-1.08;100.00
25869;BME280;13688;53.154;18.136;2023-02-15T01:29:21;102721.56;;;-1.04;100.00
25869;BME280;13688;53.154;18.136;2023-02-15T01:34:44;102707.48;;;-1.03;100.00
25869;BME280;13688;53.154;18.136;2023-02-15T01:40:11;102703.95;;;-1.02;100.00
25869;BME280;13688;53.154;18.136;2023-02-15T01:45:35;102694.27;;;-0.99;100.00
25869;BME280;13688;53.154;18.136;2023-02-15T01:51:00;102688.98;;;-0.99;100.00
25869;BME280;13688;53.154;18.136;2023-02-15T01:56:26;102684.59;;;-0.98;100.00
25869;BME280;13688;53.154;18.136;2023-02-15T02:01:51;102683.72;;;-1.02;100.00
25869;BME280;13688;53.154;18.136;2023-02-15T02:07:17;102673.16;;;-1.02;100.00
25869;BME280;13688;53.154;18.136;2023-02-15T02:12:43;102662.59;;;-0.99;100.00
25869;BME280;13688;53.154;18.136;2023-02-15T02:24:23;102658.19;;;-0.98;100.00
25869;BME280;13688;53.154;18.136;2023-02-15T02:36:08;102666.11;;;-1.00;100.00
25869;BME280;13688;53.154;18.136;2023-02-15T02:47:48;102664.34;;;-0.98;100.00
25869;BME280;13688;53.154;18.136;2023-02-15T02:53:33;102661.70;;;-0.98;100.00
25869;BME280;13688;53.154;18.136;2023-02-15T02:59:08;102660.83;;;-0.98;100.00
25869;BME280;13688;53.154;18.136;2023-02-15T03:04:38;102653.78;;;-0.99;100.00
25869;BME280;13688;53.154;18.136;2023-02-15T03:10:01;102647.65;;;-0.95;100.00
25869;BME280;13688;53.154;18.136;2023-02-15T03:15:28;102644.98;;;-0.98;100.00
25869;BME280;13688;53.154;18.136;2023-02-15T03:21:11;102639.70;;;-0.98;100.00
25869;BME280;13688;53.154;18.136;2023-02-15T03:26:39;102646.72;;;-1.17;100.00
25869;BME280;13688;53.154;18.136;2023-02-15T03:32:05;102640.56;;;-1.18;100.00
25869;BME280;13688;53.154;18.136;2023-02-15T03:37:35;102630.88;;;-1.31;100.00
25869;BME280;13688;53.154;18.136;2023-02-15T03:48:43;102639.65;;;-1.38;100.00
25869;BME280;13688;53.154;18.136;2023-02-15T04:05:56;102636.14;;;-1.43;100.00
25869;BME280;13688;53.154;18.136;2023-02-15T04:11:19;102636.13;;;-1.41;100.00
25869;BME280;13688;53.154;18.136;2023-02-15T04:16:41;102638.77;;;-1.41;100.00
25869;BME280;13688;53.154;18.136;2023-02-15T04:22:03;102629.97;;;-1.39;100.00
25869;BME280;13688;53.154;18.136;2023-02-15T04:27:51;102624.72;;;-1.34;100.00
25869;BME280;13688;53.154;18.136;2023-02-15T04:33:10;102627.36;;;-1.30;100.00
25869;BME280;13688;53.154;18.136;2023-02-15T04:38:32;102624.73;;;-1.22;100.00
25869;BME280;13688;53.154;18.136;2023-02-15T04:43:55;102615.94;;;-1.24;100.00
25869;BME280;13688;53.154;18.136;2023-02-15T04:49:17;102613.30;;;-1.24;100.00
25869;BME280;13688;53.154;18.136;2023-02-15T04:54:39;102607.14;;;-1.22;100.00
25869;BME280;13688;53.154;18.136;2023-02-15T05:00:02;102607.14;;;-1.22;100.00
25869;BME280;13688;53.154;18.136;2023-02-15T05:05:26;102606.25;;;-1.21;100.00
25869;BME280;13688;53.154;18.136;2023-02-15T05:10:50;102600.11;;;-1.24;100.00
25869;BME280;13688;53.154;18.136;2023-02-15T05:16:13;102608.00;;;-1.27;100.00
25869;BME280;13688;53.154;18.136;2023-02-15T05:21:38;102606.27;;;-1.25;100.00
25869;BME280;13688;53.154;18.136;2023-02-15T05:27:01;102608.88;;;-1.27;100.00
25869;BME280;13688;53.154;18.136;2023-02-15T05:32:41;102607.12;;;-1.28;100.00
25869;BME280;13688;53.154;18.136;2023-02-15T05:38:03;102604.50;;;-1.23;100.00
25869;BME280;13688;53.154;18.136;2023-02-15T05:43:27;102613.30;;;-1.21;100.00
25869;BME280;13688;53.154;18.136;2023-02-15T05:48:49;102618.57;;;-1.20;100.00
25869;BME280;13688;53.154;18.136;2023-02-15T05:54:11;102609.78;;;-1.23;100.00
25869;BME280;13688;53.154;18.136;2023-02-15T05:59:34;102608.89;;;-1.18;100.00
25869;BME280;13688;53.154;18.136;2023-02-15T06:04:56;102607.14;;;-1.23;100.00
25869;BME280;13688;53.154;18.136;2023-02-15T06:10:20;102609.77;;;-1.20;100.00
25869;BME280;13688;53.154;18.136;2023-02-15T06:15:42;102601.84;;;-1.17;100.00
25869;BME280;13688;53.154;18.136;2023-02-15T06:21:05;102601.88;;;-1.16;100.00
25869;BME280;13688;53.154;18.136;2023-02-15T06:26:27;102602.75;;;-1.12;100.00
25869;BME280;13688;53.154;18.136;2023-02-15T06:31:49;102616.84;;;-1.05;100.00
25869;BME280;13688;53.154;18.136;2023-02-15T06:37:11;102614.20;;;-1.04;100.00
25869;BME280;13688;53.154;18.136;2023-02-15T06:42:34;102611.55;;;-1.01;100.00
25869;BME280;13688;53.154;18.136;2023-02-15T06:48:00;102609.78;;;-0.99;100.00
25869;BME280;13688;53.154;18.136;2023-02-15T06:53:22;102603.62;;;-0.98;100.00
25869;BME280;13688;53.154;18.136;2023-02-15T06:58:46;102608.03;;;-0.94;100.00
25869;BME280;13688;53.154;18.136;2023-02-15T07:04:08;102605.38;;;-0.89;100.00
25869;BME280;13688;53.154;18.136;2023-02-15T07:09:31;102600.97;;;-0.87;100.00
25869;BME280;13688;53.154;18.136;2023-02-15T07:14:54;102596.58;;;-0.80;100.00
25869;BME280;13688;53.154;18.136;2023-02-15T07:20:25;102579.86;;;-0.76;100.00
25869;BME280;13688;53.154;18.136;2023-02-15T07:25:47;102580.73;;;-0.67;100.00
25869;BME280;13688;53.154;18.136;2023-02-15T07:31:16;102578.08;;;-0.64;100.00
25869;BME280;13688;53.154;18.136;2023-02-15T07:36:39;102574.54;;;-0.55;100.00
25869;BME280;13688;53.154;18.136;2023-02-15T07:42:01;102577.16;;;-0.44;100.00
25869;BME280;13688;53.154;18.136;2023-02-15T07:47:24;102577.15;;;-0.38;100.00
25869;BME280;13688;53.154;18.136;2023-02-15T07:52:46;102574.45;;;-0.29;100.00
25869;BME280;13688;53.154;18.136;2023-02-15T07:58:08;102567.39;;;-0.24;100.00
25869;BME280;13688;53.154;18.136;2023-02-15T08:03:32;102563.83;;;-0.14;100.00
25869;BME280;13688;53.154;18.136;2023-02-15T08:08:55;102552.30;;;-0.01;100.00
25869;BME280;13688;53.154;18.136;2023-02-15T08:14:23;102549.59;;;0.19;100.00
25869;BME280;13688;53.154;18.136;2023-02-15T08:19:45;102536.36;;;0.16;100.00
25869;BME280;13688;53.154;18.136;2023-02-15T08:25:08;102523.96;;;0.29;100.00
25869;BME280;13688;53.154;18.136;2023-02-15T08:30:31;102522.98;;;0.42;100.00
25869;BME280;13688;53.154;18.136;2023-02-15T08:35:53;102510.54;;;0.53;100.00
25869;BME280;13688;53.154;18.136;2023-02-15T08:41:31;102517.34;;;0.83;100.00
25869;BME280;13688;53.154;18.136;2023-02-15T08:46:54;102517.19;;;1.02;100.00
25869;BME280;13688;53.154;18.136;2023-02-15T08:52:16;102506.44;;;1.15;100.00
25869;BME280;13688;53.154;18.136;2023-02-15T08:57:39;102499.36;;;1.19;100.00
25869;BME280;13688;53.154;18.136;2023-02-15T09:03:03;102500.02;;;1.39;100.00
25869;BME280;13688;53.154;18.136;2023-02-15T09:08:26;102492.01;;;1.46;100.00
25869;BME280;13688;53.154;18.136;2023-02-15T09:13:49;102484.78;;;1.58;100.00
25869;BME280;13688;53.154;18.136;2023-02-15T09:19:14;102485.45;;;1.76;100.00
25869;BME280;13688;53.154;18.136;2023-02-15T09:24:39;102479.97;;;1.88;100.00
25869;BME280;13688;53.154;18.136;2023-02-15T09:30:01;102482.27;;;2.12;100.00
25869;BME280;13688;53.154;18.136;2023-02-15T09:35:24;102479.42;;;2.26;100.00
25869;BME280;13688;53.154;18.136;2023-02-15T09:40:55;102474.03;;;2.32;98.52
25869;BME280;13688;53.154;18.136;2023-02-15T09:46:34;102473.32;;;2.19;92.98
25869;BME280;13688;53.154;18.136;2023-02-15T09:57:34;102455.28;;;2.41;87.68
25869;BME280;13688;53.154;18.136;2023-02-15T10:03:01;102460.59;;;2.43;86.14
25869;BME280;13688;53.154;18.136;2023-02-15T10:08:32;102447.16;;;2.52;85.17
25869;BME280;13688;53.154;18.136;2023-02-15T10:14:45;102444.51;;;2.52;84.34
25869;BME280;13688;53.154;18.136;2023-02-15T10:20:31;102440.43;;;2.29;82.89
25869;BME280;13688;53.154;18.136;2023-02-15T10:26:17;102435.46;;;2.08;81.76
25869;BME280;13688;53.154;18.136;2023-02-15T10:37:53;102437.74;;;2.31;81.35
25869;BME280;13688;53.154;18.136;2023-02-15T10:49:37;102418.64;;;2.09;80.81
25869;BME280;13688;53.154;18.136;2023-02-15T10:55:24;102424.71;;;2.17;81.08
25869;BME280;13688;53.154;18.136;2023-02-15T11:01:02;102424.62;;;2.22;81.26
25869;BME280;13688;53.154;18.136;2023-02-15T11:06:46;102414.70;;;2.35;80.97
25869;BME280;13688;53.154;18.136;2023-02-15T11:12:12;102401.38;;;2.38;80.15
25869;BME280;13688;53.154;18.136;2023-02-15T11:17:39;102407.52;;;2.40;79.85
25869;BME280;13688;53.154;18.136;2023-02-15T11:23:08;102397.78;;;2.40;79.75
25869;BME280;13688;53.154;18.136;2023-02-15T11:28:44;102385.35;;;2.44;79.89
25869;BME280;13688;53.154;18.136;2023-02-15T11:34:10;102378.67;;;2.71;79.98
25869;BME280;13688;53.154;18.136;2023-02-15T11:39:39;102367.77;;;2.84;79.33
25869;BME280;13688;53.154;18.136;2023-02-15T11:45:32;102360.20;;;3.09;78.39
25869;BME280;13688;53.154;18.136;2023-02-15T11:50:55;102355.50;;;2.77;77.42
25869;BME280;13688;53.154;18.136;2023-02-15T11:56:21;102347.11;;;2.54;77.62
25869;BME280;13688;53.154;18.136;2023-02-15T12:01:47;102354.06;;;2.61;78.36
25869;BME280;13688;53.154;18.136;2023-02-15T12:07:20;102351.52;;;2.55;78.80
25869;BME280;13688;53.154;18.136;2023-02-15T12:12:44;102340.73;;;3.07;79.28
25869;BME280;13688;53.154;18.136;2023-02-15T12:18:39;102346.95;;;3.06;78.11
25869;BME280;13688;53.154;18.136;2023-02-15T12:24:17;102330.28;;;3.00;77.56
25869;BME280;13688;53.154;18.136;2023-02-15T12:29:49;102329.23;;;3.07;77.31
25869;BME280;13688;53.154;18.136;2023-02-15T12:40:59;102314.49;;;2.92;77.95
25869;BME280;13688;53.154;18.136;2023-02-15T12:46:31;102300.41;;;2.87;78.00
25869;BME280;13688;53.154;18.136;2023-02-15T12:52:00;102307.28;;;2.97;78.58
25869;BME280;13688;53.154;18.136;2023-02-15T12:57:38;102293.88;;;3.03;78.67
25869;BME280;13688;53.154;18.136;2023-02-15T13:03:02;102285.10;;;3.40;78.59
25869;BME280;13688;53.154;18.136;2023-02-15T13:08:28;102274.59;;;3.34;77.77
25869;BME280;13688;53.154;18.136;2023-02-15T13:14:18;102260.39;;;3.35;77.49
25869;BME280;13688;53.154;18.136;2023-02-15T13:19:49;102263.10;;;2.93;77.84
25869;BME280;13688;53.154;18.136;2023-02-15T13:30:40;102256.20;;;3.25;78.08
25869;BME280;13688;53.154;18.136;2023-02-15T13:42:46;102249.97;;;3.26;77.71
25869;BME280;13688;53.154;18.136;2023-02-15T14:11:54;102221.30;;;3.01;78.65
25869;BME280;13688;53.154;18.136;2023-02-15T14:23:32;102208.51;;;2.78;79.31
25869;BME280;13688;53.154;18.136;2023-02-15T14:28:56;102215.28;;;3.32;79.30
25869;BME280;13688;53.154;18.136;2023-02-15T14:34:42;102217.57;;;3.10;77.70
25869;BME280;13688;53.154;18.136;2023-02-15T14:40:19;102217.06;;;2.93;77.88
25869;BME280;13688;53.154;18.136;2023-02-15T14:46:06;102206.72;;;2.80;78.47
25869;BME280;13688;53.154;18.136;2023-02-15T15:02:48;102190.45;;;2.54;81.00
25869;BME280;13688;53.154;18.136;2023-02-15T15:08:26;102194.94;;;2.50;81.36
25869;BME280;13688;53.154;18.136;2023-02-15T15:14:03;102189.85;;;2.40;81.46
25869;BME280;13688;53.154;18.136;2023-02-15T15:30:56;102174.30;;;2.21;82.30
25869;BME280;13688;53.154;18.136;2023-02-15T15:42:51;102165.64;;;2.12;83.42
25869;BME280;13688;53.154;18.136;2023-02-15T15:48:37;102167.66;;;1.99;83.34
25869;BME280;13688;53.154;18.136;2023-02-15T15:54:01;102165.02;;;1.99;83.78
25869;BME280;13688;53.154;18.136;2023-02-15T15:59:34;102154.47;;;1.96;84.13
25869;BME280;13688;53.154;18.136;2023-02-15T16:05:08;102145.68;;;1.92;84.41
25869;BME280;13688;53.154;18.136;2023-02-15T16:10:32;102142.16;;;1.93;84.75
25869;BME280;13688;53.154;18.136;2023-02-15T16:15:57;102137.76;;;1.91;85.13
25869;BME280;13688;53.154;18.136;2023-02-15T16:21:23;102132.52;;;1.88;85.55
25869;BME280;13688;53.154;18.136;2023-02-15T16:32:34;102120.23;;;1.82;86.12
25869;BME280;13688;53.154;18.136;2023-02-15T16:37:59;102113.23;;;1.80;86.42
25869;BME280;13688;53.154;18.136;2023-02-15T16:43:26;102103.59;;;1.76;86.72
25869;BME280;13688;53.154;18.136;2023-02-15T16:48:52;102100.17;;;1.69;87.15
25869;BME280;13688;53.154;18.136;2023-02-15T16:54:19;102102.86;;;1.67;87.66
25869;BME280;13688;53.154;18.136;2023-02-15T17:00:02;102091.38;;;1.67;88.13
25869;BME280;13688;53.154;18.136;2023-02-15T17:05:24;102082.66;;;1.60;88.59
25869;BME280;13688;53.154;18.136;2023-02-15T17:16:43;102069.17;;;1.26;89.51
25869;BME280;13688;53.154;18.136;2023-02-15T17:22:16;102069.36;;;1.14;90.37
25869;BME280;13688;53.154;18.136;2023-02-15T17:27:39;102064.24;;;1.03;91.33
25869;BME280;13688;53.154;18.136;2023-02-15T17:33:05;102061.72;;;0.97;92.22
25869;BME280;13688;53.154;18.136;2023-02-15T17:38:39;102070.77;;;0.82;92.97
25869;BME280;13688;53.154;18.136;2023-02-15T17:44:16;102071.84;;;0.71;93.73
25869;BME280;13688;53.154;18.136;2023-02-15T17:49:39;102075.42;;;0.68;94.79
25869;BME280;13688;53.154;18.136;2023-02-15T17:55:01;102070.34;;;0.53;95.54
25869;BME280;13688;53.154;18.136;2023-02-15T18:00:49;102064.38;;;0.37;96.23
25869;BME280;13688;53.154;18.136;2023-02-15T18:06:32;102064.59;;;0.23;97.04
25869;BME280;13688;53.154;18.136;2023-02-15T18:12:33;102053.95;;;0.26;98.14
25869;BME280;13688;53.154;18.136;2023-02-15T18:17:52;102053.19;;;0.20;99.34
25869;BME280;13688;53.154;18.136;2023-02-15T18:23:17;102057.59;;;0.18;100.00
25869;BME280;13688;53.154;18.136;2023-02-15T18:28:39;102056.72;;;0.17;100.00
25869;BME280;13688;53.154;18.136;2023-02-15T18:34:03;102061.19;;;0.14;100.00
25869;BME280;13688;53.154;18.136;2023-02-15T18:39:35;102054.33;;;0.01;100.00
25869;BME280;13688;53.154;18.136;2023-02-15T18:45:03;102061.45;;;-0.06;100.00
25869;BME280;13688;53.154;18.136;2023-02-15T18:50:39;102057.20;;;-0.21;100.00
25869;BME280;13688;53.154;18.136;2023-02-15T18:56:02;102059.11;;;-0.32;100.00
25869;BME280;13688;53.154;18.136;2023-02-15T19:01:29;102048.62;;;-0.38;100.00
25869;BME280;13688;53.154;18.136;2023-02-15T19:06:53;102057.41;;;-0.36;100.00
25869;BME280;13688;53.154;18.136;2023-02-15T19:12:17;102037.98;;;-0.34;100.00
25869;BME280;13688;53.154;18.136;2023-02-15T19:17:39;102035.45;;;-0.43;100.00
25869;BME280;13688;53.154;18.136;2023-02-15T19:23:04;102028.45;;;-0.48;100.00
25869;BME280;13688;53.154;18.136;2023-02-15T19:28:36;102028.34;;;-0.39;100.00
25869;BME280;13688;53.154;18.136;2023-02-15T19:33:59;102015.38;;;-0.57;100.00
25869;BME280;13688;53.154;18.136;2023-02-15T19:39:40;102002.27;;;-0.67;100.00
25869;BME280;13688;53.154;18.136;2023-02-15T19:44:59;101990.86;;;-0.72;100.00
25869;BME280;13688;53.154;18.136;2023-02-15T19:50:29;101987.41;;;-0.77;100.00
25869;BME280;13688;53.154;18.136;2023-02-15T19:55:55;101985.58;;;-0.72;100.00
25869;BME280;13688;53.154;18.136;2023-02-15T20:01:17;101975.87;;;-0.70;100.00
25869;BME280;13688;53.154;18.136;2023-02-15T20:06:40;101958.37;;;-0.77;100.00
25869;BME280;13688;53.154;18.136;2023-02-15T20:12:02;101954.05;;;-0.87;100.00
25869;BME280;13688;53.154;18.136;2023-02-15T20:17:27;101940.09;;;-0.98;100.00
25869;BME280;13688;53.154;18.136;2023-02-15T20:22:51;101935.69;;;-0.98;100.00
25869;BME280;13688;53.154;18.136;2023-02-15T20:28:16;101937.47;;;-1.00;100.00
25869;BME280;13688;53.154;18.136;2023-02-15T20:33:40;101941.93;;;-1.06;100.00
25869;BME280;13688;53.154;18.136;2023-02-15T20:39:15;101942.89;;;-1.12;100.00
25869;BME280;13688;53.154;18.136;2023-02-15T20:44:38;101944.72;;;-1.20;100.00
25869;BME280;13688;53.154;18.136;2023-02-15T20:50:00;101945.59;;;-1.20;100.00
25869;BME280;13688;53.154;18.136;2023-02-15T20:55:28;101933.38;;;-1.30;100.00
25869;BME280;13688;53.154;18.136;2023-02-15T21:00:51;101937.78;;;-1.30;100.00
25869;BME280;13688;53.154;18.136;2023-02-15T21:06:16;101927.35;;;-1.42;100.00
25869;BME280;13688;53.154;18.136;2023-02-15T21:11:38;101915.10;;;-1.50;100.00
25869;BME280;13688;53.154;18.136;2023-02-15T21:17:01;101910.72;;;-1.51;100.00
25869;BME280;13688;53.154;18.136;2023-02-15T21:22:25;101908.12;;;-1.54;100.00
25869;BME280;13688;53.154;18.136;2023-02-15T21:27:49;101886.09;;;-1.50;100.00
25869;BME280;13688;53.154;18.136;2023-02-15T21:33:12;101886.14;;;-1.54;100.00
25869;BME280;13688;53.154;18.136;2023-02-15T21:38:35;101880.80;;;-1.48;100.00
25869;BME280;13688;53.154;18.136;2023-02-15T21:43:58;101881.62;;;-1.41;100.00
25869;BME280;13688;53.154;18.136;2023-02-15T21:49:42;101879.09;;;-1.52;100.00
25869;BME280;13688;53.154;18.136;2023-02-15T21:55:07;101871.17;;;-1.52;100.00
25869;BME280;13688;53.154;18.136;2023-02-15T22:00:30;101862.45;;;-1.60;100.00
25869;BME280;13688;53.154;18.136;2023-02-15T22:05:52;101876.61;;;-1.70;100.00
25869;BME280;13688;53.154;18.136;2023-02-15T22:11:17;101871.38;;;-1.74;100.00
25869;BME280;13688;53.154;18.136;2023-02-15T22:16:42;101873.20;;;-1.85;100.00
25869;BME280;13688;53.154;18.136;2023-02-15T22:22:05;101871.51;;;-1.93;100.00
25869;BME280;13688;53.154;18.136;2023-02-15T22:27:37;101864.49;;;-1.94;100.00
25869;BME280;13688;53.154;18.136;2023-02-15T22:32:54;101868.92;;;-1.98;100.00
25869;BME280;13688;53.154;18.136;2023-02-15T22:38:18;101852.16;;;-1.89;100.00
25869;BME280;13688;53.154;18.136;2023-02-15T22:43:45;101853.04;;;-1.89;100.00
25869;BME280;13688;53.154;18.136;2023-02-15T22:49:13;101853.00;;;-1.86;100.00
25869;BME280;13688;53.154;18.136;2023-02-15T22:54:33;101841.70;;;-1.98;100.00
25869;BME280;13688;53.154;18.136;2023-02-15T22:59:56;101838.23;;;-2.05;100.00
25869;BME280;13688;53.154;18.136;2023-02-15T23:05:27;101839.92;;;-1.96;100.00
25869;BME280;13688;53.154;18.136;2023-02-15T23:10:53;101846.13;;;-2.02;100.00
25869;BME280;13688;53.154;18.136;2023-02-15T23:16:17;101833.77;;;-1.97;100.00
25869;BME280;13688;53.154;18.136;2023-02-15T23:21:39;101826.77;;;-1.99;100.00
25869;BME280;13688;53.154;18.136;2023-02-15T23:27:04;101838.23;;;-2.02;100.00
25869;BME280;13688;53.154;18.136;2023-02-15T23:32:50;101827.72;;;-2.08;100.00
25869;BME280;13688;53.154;18.136;2023-02-15T23:38:24;101820.75;;;-2.15;100.00
25869;BME280;13688;53.154;18.136;2023-02-15T23:43:55;101810.15;;;-2.08;100.00
25869;BME280;13688;53.154;18.136;2023-02-15T23:49:20;101799.57;;;-2.05;100.00
25869;BME280;13688;53.154;18.136;2023-02-15T23:54:42;101798.63;;;-1.96;100.00
